Time;durP1;ratioP1;P1;durP2;ratioP2;P2;SDS_P1;SDS_P2;PMS_P1;PMS_P2;Temp;Humidity;BMP_temperature;BMP_pressure;BME280_temperature;BME280_humidity;BME280_pressure;Samples;Min_cycle;Max_cycle;Signal;HPM_P1;HPM_P2
2021/12/27 00:00:36;;;;;;;3.55;2.50;;;;;;;21.36;15.32;100231.19;5121917;27;20076;-56
2021/12/27 00:03:01;;;;;;;3.35;2.80;;;;;;;21.37;15.49;100242.97;5131681;27;20038;-57
2021/12/27 00:05:28;;;;;;;3.00;2.60;;;;;;;21.36;15.40;100242.19;5131294;27;20031;-56
2021/12/27 00:07:54;;;;;;;2.90;2.35;;;;;;;21.37;15.68;100237.47;5130948;27;20026;-57
2021/12/27 00:10:20;;;;;;;3.25;2.70;;;;;;;21.38;15.59;100245.28;5095202;27;20043;-57
2021/12/27 00:12:46;;;;;;;3.55;2.80;;;;;;;21.38;15.40;100250.00;5101708;27;20386;-57
2021/12/27 00:15:13;;;;;;;3.88;2.97;;;;;;;21.38;15.42;100241.75;5132177;27;20023;-58
2021/12/27 00:17:40;;;;;;;3.17;2.80;;;;;;;21.37;15.53;100243.75;5132328;27;20038;-57
2021/12/27 00:20:07;;;;;;;3.42;2.67;;;;;;;21.36;15.50;100253.19;5132452;27;20039;-58
2021/12/27 00:22:32;;;;;;;3.42;2.70;;;;;;;21.37;15.62;100253.97;5131375;27;20402;-56
2021/12/27 00:24:58;;;;;;;3.53;2.70;;;;;;;21.38;15.36;100274.78;5106162;27;20036;-58
2021/12/27 00:27:24;;;;;;;3.65;2.70;;;;;;;21.38;15.47;100275.56;5091684;28;20108;-58
2021/12/27 00:29:51;;;;;;;3.88;2.83;;;;;;;21.37;15.43;100271.25;5099679;28;20039;-57
2021/12/27 00:32:17;;;;;;;3.60;2.85;;;;;;;21.38;15.60;100277.53;5131871;27;20035;-56
2021/12/27 00:34:42;;;;;;;3.40;2.78;;;;;;;21.37;15.83;100285.03;5118554;27;20035;-57
2021/12/27 00:37:08;;;;;;;3.40;2.80;;;;;;;21.38;15.50;100277.53;5111203;28;20035;-58
2021/12/27 00:39:34;;;;;;;3.50;2.65;;;;;;;21.37;15.65;100284.25;5124803;28;20032;-58
2021/12/27 00:42:00;;;;;;;2.85;2.50;;;;;;;21.37;15.69;100281.50;5076345;28;20035;-58
2021/12/27 00:44:25;;;;;;;4.03;3.20;;;;;;;21.39;15.55;100292.84;5127438;28;20039;-58
2021/12/27 00:46:51;;;;;;;3.63;2.85;;;;;;;21.37;15.56;100287.78;5091150;28;20046;-58
2021/12/27 00:49:17;;;;;;;3.47;2.70;;;;;;;21.38;15.54;100296.81;5091057;28;20048;-57
2021/12/27 00:51:42;;;;;;;3.95;2.60;;;;;;;21.36;15.56;100293.69;5090357;28;20078;-58
2021/12/27 00:54:08;;;;;;;3.38;2.65;;;;;;;21.38;15.76;100289.31;5089740;28;20036;-57
2021/12/27 00:56:33;;;;;;;3.85;2.72;;;;;;;21.38;15.60;100292.06;5089048;28;20024;-58
2021/12/27 00:58:59;;;;;;;3.42;2.63;;;;;;;21.38;15.79;100299.56;5091097;28;20066;-58
2021/12/27 01:01:24;;;;;;;3.65;2.70;;;;;;;21.39;15.70;100298.34;5126481;28;20081;-57
2021/12/27 01:03:51;;;;;;;3.13;2.53;;;;;;;21.37;15.84;100318.03;5115084;27;20061;-56
2021/12/27 01:06:16;;;;;;;3.42;2.63;;;;;;;21.38;15.57;100308.59;5109121;27;20068;-57
2021/12/27 01:08:42;;;;;;;3.67;3.00;;;;;;;21.39;15.55;100306.59;5113632;28;20426;-55
2021/12/27 01:14:38;;;;;;;3.40;2.90;;;;;;;21.38;15.60;100297.56;5115314;27;20088;-56
2021/12/27 01:16:44;;;;;;;3.83;2.88;;;;;;;21.39;15.63;100301.09;5110127;28;20047;-56
2021/12/27 01:19:10;;;;;;;3.83;2.60;;;;;;;21.39;15.78;100306.59;5113757;28;20041;-58
2021/12/27 01:21:35;;;;;;;3.35;2.80;;;;;;;21.37;15.65;100303.50;5098848;28;20081;-56
2021/12/27 01:24:01;;;;;;;3.60;2.80;;;;;;;21.36;15.51;100296.44;5092383;28;20024;-56
2021/12/27 01:26:27;;;;;;;3.80;2.72;;;;;;;21.38;15.57;100299.56;5092485;28;20097;-56
2021/12/27 01:28:54;;;;;;;4.22;3.00;;;;;;;21.38;15.82;100296.81;5094361;28;20410;-58
2021/12/27 01:31:19;;;;;;;3.72;2.80;;;;;;;21.39;15.74;100306.59;5128319;27;20060;-57
2021/12/27 01:33:46;;;;;;;3.88;2.88;;;;;;;21.40;15.81;100308.16;5134630;27;20035;-56
2021/12/27 01:36:12;;;;;;;3.42;2.80;;;;;;;21.37;15.60;100304.28;5104462;27;20484;-57
2021/12/27 01:38:40;;;;;;;3.60;2.78;;;;;;;21.39;15.66;100310.13;5114836;27;20399;-56
2021/12/27 01:41:05;;;;;;;3.40;2.70;;;;;;;21.38;15.68;100316.84;5135394;27;20041;-56
2021/12/27 01:43:32;;;;;;;3.45;2.85;;;;;;;21.38;15.59;100321.56;5133006;27;20031;-58
2021/12/27 01:46:00;;;;;;;3.72;2.67;;;;;;;21.38;15.87;100321.56;5134193;27;20038;-59
2021/12/27 01:48:28;;;;;;;3.40;2.70;;;;;;;21.37;15.68;100318.03;5107670;27;20525;-56
2021/12/27 01:50:54;;;;;;;3.30;2.65;;;;;;;21.38;15.98;100316.06;5103509;28;20437;-57
2021/12/27 01:53:21;;;;;;;3.55;2.70;;;;;;;21.36;15.59;100313.75;5093062;28;20036;-58
2021/12/27 01:55:47;;;;;;;3.30;2.78;;;;;;;21.39;15.85;100312.13;5092965;28;20035;-58
2021/12/27 01:58:12;;;;;;;3.75;3.25;;;;;;;21.38;15.72;100305.84;5093820;28;20028;-58
2021/12/27 02:00:40;;;;;;;3.55;3.00;;;;;;;21.39;15.89;100314.88;5115315;27;20493;-57
2021/12/27 02:03:06;;;;;;;3.35;2.75;;;;;;;21.39;15.83;100304.63;5134652;27;20084;-58
2021/12/27 02:05:32;;;;;;;3.60;2.63;;;;;;;21.38;15.92;100305.06;5125155;27;20031;-57
2021/12/27 02:07:57;;;;;;;3.90;3.17;;;;;;;21.38;15.97;100311.34;5117824;27;20059;-57
2021/12/27 02:10:23;;;;;;;3.53;2.80;;;;;;;21.39;15.95;100312.88;5133271;27;20042;-58
2021/12/27 02:12:48;;;;;;;3.40;2.85;;;;;;;21.39;15.79;100315.63;5120062;27;20078;-57
2021/12/27 02:15:14;;;;;;;3.33;2.80;;;;;;;21.39;15.94;100310.13;5092919;28;20036;-56
2021/12/27 02:17:41;;;;;;;3.17;2.60;;;;;;;21.39;15.84;100315.63;5093012;28;20036;-56
2021/12/27 02:20:08;;;;;;;3.10;2.55;;;;;;;21.39;15.95;100318.41;5092579;28;20470;-58
2021/12/27 02:22:36;;;;;;;3.78;2.90;;;;;;;21.40;15.95;100321.91;5093631;28;20024;-58
2021/12/27 02:25:05;;;;;;;4.20;2.97;;;;;;;21.38;15.87;100316.84;5092783;28;20031;-57
2021/12/27 02:27:30;;;;;;;3.58;2.70;;;;;;;21.39;15.95;100326.66;5092365;28;20384;-59
2021/12/27 02:29:56;;;;;;;3.42;2.80;;;;;;;21.39;15.98;100325.88;5102057;27;20039;-58
2021/12/27 02:32:22;;;;;;;3.80;3.10;;;;;;;21.39;15.95;100318.41;5100988;27;20047;-56
2021/12/27 02:34:47;;;;;;;3.60;2.75;;;;;;;21.41;15.91;100325.44;5095186;27;20035;-57
2021/12/27 02:37:13;;;;;;;3.83;2.85;;;;;;;21.40;15.93;100316.41;5092177;28;20172;-58
2021/12/27 02:39:38;;;;;;;3.38;2.88;;;;;;;21.33;15.85;100314.59;5130334;27;20050;-57
2021/12/27 02:42:04;;;;;;;3.28;2.92;;;;;;;21.40;16.00;100324.66;5115690;27;20414;-58
2021/12/27 02:44:30;;;;;;;4.47;3.13;;;;;;;21.41;15.84;100326.22;5133784;27;20038;-56
2021/12/27 02:46:55;;;;;;;3.63;2.97;;;;;;;21.39;16.09;100328.63;5102543;27;20035;-58
2021/12/27 02:49:21;;;;;;;3.33;2.72;;;;;;;21.41;15.81;100333.72;5092379;28;20131;-57
2021/12/27 02:51:46;;;;;;;3.58;2.72;;;;;;;21.41;15.94;100331.72;5092773;28;20537;-56
2021/12/27 02:54:12;;;;;;;3.50;2.85;;;;;;;21.41;16.02;100334.47;5092256;28;20043;-57
2021/12/27 02:56:37;;;;;;;3.22;2.70;;;;;;;21.41;15.90;100334.47;5092855;28;20031;-58
2021/12/27 02:59:03;;;;;;;3.17;2.53;;;;;;;21.41;15.80;100337.22;5090919;28;20036;-57
2021/12/27 03:01:30;;;;;;;3.72;3.00;;;;;;;21.40;15.96;100338.44;5128541;27;20039;-57
2021/12/27 03:03:55;;;;;;;3.35;2.45;;;;;;;21.39;16.07;100343.16;5100413;27;20047;-55
2021/12/27 03:06:21;;;;;;;3.78;3.05;;;;;;;21.39;15.87;100340.41;5091155;28;20036;-58
2021/12/27 03:08:47;;;;;;;3.15;2.55;;;;;;;21.40;15.93;100332.94;5115830;27;20039;-57
2021/12/27 03:11:12;;;;;;;3.30;2.70;;;;;;;21.39;15.94;100339.63;5133380;27;20034;-58
2021/12/27 03:13:44;;;;;;;3.25;2.47;;;;;;;21.40;15.96;100352.19;5132070;27;20399;-58
2021/12/27 03:16:15;;;;;;;2.50;2.10;;;;;;;21.41;15.84;100353.75;5131730;27;20030;-58
2021/12/27 03:18:42;;;;;;;3.97;2.70;;;;;;;21.40;16.20;100352.19;5097889;27;20277;-57
2021/12/27 03:21:08;;;;;;;3.60;2.85;;;;;;;21.41;15.95;100334.47;5091834;28;20047;-57
2021/12/27 03:23:33;;;;;;;3.88;2.80;;;;;;;21.40;16.07;100349.44;5090033;28;20036;-55
2021/12/27 03:25:59;;;;;;;3.47;2.67;;;;;;;21.41;15.91;100351.00;5091024;28;20035;-56
2021/12/27 03:28:25;;;;;;;3.42;2.95;;;;;;;21.41;16.09;100348.25;5091634;28;20035;-57
2021/12/27 03:30:50;;;;;;;3.50;2.83;;;;;;;21.33;15.84;100344.09;5115940;27;20046;-57
2021/12/27 03:33:16;;;;;;;3.20;2.80;;;;;;;21.42;15.95;100354.56;5100610;27;20040;-57
2021/12/27 03:35:51;;;;;;;3.15;2.85;;;;;;;21.42;16.21;100358.09;5120965;27;20057;-57
2021/12/27 03:38:17;;;;;;;3.65;3.03;;;;;;;21.43;16.25;100350.59;5116942;27;20035;-57
2021/12/27 03:40:44;;;;;;;3.70;2.78;;;;;;;21.42;15.91;100360.06;5131644;27;20092;-57
2021/12/27 03:43:10;;;;;;;3.47;2.80;;;;;;;21.42;16.07;100362.81;5132566;27;20023;-58
2021/12/27 03:45:38;;;;;;;3.15;2.75;;;;;;;21.42;15.94;100373.81;5089286;28;20081;-57
2021/12/27 03:48:04;;;;;;;3.92;3.10;;;;;;;21.42;15.90;100365.56;5106294;28;20063;-57
2021/12/27 03:50:30;;;;;;;3.20;2.60;;;;;;;21.38;16.15;100371.09;5090574;28;20043;-58
2021/12/27 03:52:56;;;;;;;3.33;2.78;;;;;;;21.40;16.01;100368.72;5091007;28;20035;-58
2021/12/27 03:55:22;;;;;;;3.25;2.78;;;;;;;21.40;16.14;100374.22;5098914;28;20036;-58
2021/12/27 03:57:53;;;;;;;3.25;2.58;;;;;;;21.40;16.15;100371.47;5109512;28;20043;-58
2021/12/27 04:02:51;;;;;;;3.30;2.75;;;;;;;21.40;16.09;100379.72;5092395;28;20067;-57
2021/12/27 04:05:17;;;;;;;3.30;2.83;;;;;;;21.42;16.25;100384.81;5113757;27;20107;-57
2021/12/27 04:07:44;;;;;;;3.55;2.80;;;;;;;21.41;16.19;100386.78;5102462;28;20027;-57
2021/12/27 04:10:10;;;;;;;3.42;3.00;;;;;;;21.41;16.25;100394.25;5100468;28;20117;-56
2021/12/27 04:12:36;;;;;;;3.85;3.15;;;;;;;21.39;16.09;100395.44;5115463;27;20068;-58
2021/12/27 04:15:02;;;;;;;3.47;2.58;;;;;;;21.41;16.03;100408.78;5131458;27;20121;-57
2021/12/27 04:17:28;;;;;;;3.80;3.03;;;;;;;21.40;16.14;100410.00;5107004;27;20043;-56
2021/12/27 04:19:53;;;;;;;3.30;2.80;;;;;;;21.41;16.26;100408.78;5090677;28;20093;-57
2021/12/27 04:22:19;;;;;;;3.97;3.25;;;;;;;21.41;16.26;100399.75;5093764;28;20031;-58
2021/12/27 04:24:44;;;;;;;3.63;2.80;;;;;;;21.41;15.89;100403.28;5106383;28;20361;-57
2021/12/27 04:27:10;;;;;;;3.38;2.53;;;;;;;21.39;16.28;100406.47;5102224;28;20046;-58
2021/12/27 04:29:36;;;;;;;3.13;2.47;;;;;;;21.42;16.37;100409.59;5098078;28;20059;-57
2021/12/27 04:32:01;;;;;;;3.30;2.50;;;;;;;21.41;16.44;100425.31;5103502;28;20036;-57
2021/12/27 04:34:27;;;;;;;3.20;2.80;;;;;;;21.42;16.20;100431.63;5106832;28;20510;-57
2021/12/27 04:36:53;;;;;;;4.07;2.53;;;;;;;21.41;16.13;100441.81;5099981;28;20027;-58
2021/12/27 04:39:18;;;;;;;3.35;2.53;;;;;;;21.39;16.34;100445.00;5099963;28;20450;-56
2021/12/27 04:41:44;;;;;;;3.75;2.95;;;;;;;21.38;16.23;100448.16;5103518;28;20457;-56
2021/12/27 04:44:09;;;;;;;3.78;2.80;;;;;;;21.41;16.32;100458.34;5108906;28;20030;-57
2021/12/27 04:46:35;;;;;;;3.35;2.70;;;;;;;21.41;16.26;100458.34;5107906;28;20044;-58
2021/12/27 04:49:00;;;;;;;3.42;2.60;;;;;;;21.41;16.15;100463.84;5107279;28;20054;-56
2021/12/27 04:51:26;;;;;;;3.78;3.08;;;;;;;21.40;16.20;100467.78;5108558;28;20416;-57
2021/12/27 04:53:52;;;;;;;3.58;2.80;;;;;;;21.41;16.34;100469.34;5112139;27;20042;-57
2021/12/27 04:56:17;;;;;;;3.60;2.75;;;;;;;21.40;16.25;100476.03;5113078;28;20034;-58
2021/12/27 04:58:46;;;;;;;3.38;2.80;;;;;;;21.40;16.40;100473.28;5110085;28;20036;-58
2021/12/27 05:01:15;;;;;;;3.72;2.97;;;;;;;21.41;16.15;100476.81;5115518;27;20071;-58
2021/12/27 05:03:40;;;;;;;3.22;2.92;;;;;;;21.42;16.22;100483.91;5108305;28;20043;-58
2021/12/27 05:06:06;;;;;;;3.75;2.60;;;;;;;21.42;16.21;100486.66;5111035;27;20027;-58
2021/12/27 05:08:32;;;;;;;3.38;3.03;;;;;;;21.41;16.52;100487.84;5096680;28;20467;-58
2021/12/27 05:10:57;;;;;;;3.30;2.90;;;;;;;21.41;16.06;100491.34;5106287;28;20039;-57
2021/12/27 05:13:23;;;;;;;3.50;2.80;;;;;;;21.42;16.47;100500.44;5113027;27;20070;-56
2021/12/27 05:15:48;;;;;;;3.20;2.55;;;;;;;21.41;16.17;100493.34;5105260;28;20148;-57
2021/12/27 05:18:14;;;;;;;3.72;3.00;;;;;;;21.41;16.18;100496.88;5109281;27;20042;-59
2021/12/27 05:20:43;;;;;;;3.72;2.72;;;;;;;21.41;16.31;100499.63;5111480;28;20130;-57
2021/12/27 05:23:08;;;;;;;3.28;2.78;;;;;;;21.40;16.34;100509.06;5107322;28;20027;-56
2021/12/27 05:25:34;;;;;;;3.33;2.70;;;;;;;21.40;16.34;100509.06;5107838;27;20043;-58
2021/12/27 05:27:59;;;;;;;3.38;2.65;;;;;;;21.41;16.48;100515.34;5103806;27;20055;-58
2021/12/27 05:30:25;;;;;;;2.88;2.38;;;;;;;21.39;16.50;100521.28;5112496;27;20035;-56
2021/12/27 05:32:50;;;;;;;3.67;2.95;;;;;;;21.39;16.42;100524.03;5102779;28;20047;-56
2021/12/27 05:35:16;;;;;;;3.22;2.83;;;;;;;21.38;16.38;100531.50;5106961;27;20036;-59
2021/12/27 05:37:42;;;;;;;3.20;2.47;;;;;;;21.36;16.33;100527.63;5107996;27;20026;-56
2021/12/27 05:40:11;;;;;;;3.65;3.08;;;;;;;21.39;16.22;100535.03;5110935;28;20053;-57
2021/12/27 05:42:36;;;;;;;3.90;3.28;;;;;;;21.39;16.22;100535.03;5102188;27;20035;-57
2021/12/27 05:45:03;;;;;;;3.40;2.72;;;;;;;21.33;16.65;100532.00;5098924;27;20035;-57
2021/12/27 05:47:28;;;;;;;3.22;2.85;;;;;;;21.39;16.48;100538.56;5099129;27;20075;-57
2021/12/27 05:49:54;;;;;;;3.03;2.63;;;;;;;21.38;16.61;100539.75;5103452;27;20473;-58
2021/12/27 05:52:19;;;;;;;3.38;2.60;;;;;;;21.39;16.29;100537.78;5105301;28;20514;-58
2021/12/27 05:54:45;;;;;;;4.13;2.65;;;;;;;21.39;16.25;100546.81;5108919;28;20032;-57
2021/12/27 05:57:10;;;;;;;3.22;2.80;;;;;;;21.39;16.61;100546.06;5096952;27;20036;-58
2021/12/27 05:59:36;;;;;;;3.53;2.80;;;;;;;21.33;16.28;100536.72;5097525;27;20027;-57
2021/12/27 06:02:02;;;;;;;3.05;2.63;;;;;;;21.37;16.58;100551.19;5098597;27;20027;-57
2021/12/27 06:04:27;;;;;;;3.10;2.72;;;;;;;21.39;16.58;100565.31;5101476;28;20032;-59
2021/12/27 06:06:53;;;;;;;3.53;3.00;;;;;;;21.38;16.67;100570.03;5100017;27;20036;-58
2021/12/27 06:09:18;;;;;;;3.60;2.85;;;;;;;21.38;16.40;100577.53;5103727;27;20043;-56
2021/12/27 06:11:44;;;;;;;3.55;2.90;;;;;;;21.38;16.59;100575.53;5104778;28;20124;-56
2021/12/27 06:14:09;;;;;;;3.90;3.13;;;;;;;21.38;16.67;100574.78;5101970;27;20024;-58
2021/12/27 06:16:35;;;;;;;3.40;2.83;;;;;;;21.39;16.65;100581.84;5098855;27;20119;-58
2021/12/27 06:19:00;;;;;;;3.33;2.65;;;;;;;21.30;16.52;100579.59;5100262;27;20032;-57
2021/12/27 06:21:26;;;;;;;3.35;2.72;;;;;;;21.38;16.58;100588.53;5095835;28;20023;-56
2021/12/27 06:23:51;;;;;;;3.60;3.00;;;;;;;21.39;16.71;100610.13;5095641;28;20472;-57
2021/12/27 06:26:17;;;;;;;3.50;2.90;;;;;;;21.39;16.57;100606.59;5093379;27;20522;-57
2021/12/27 06:28:43;;;;;;;3.72;3.00;;;;;;;21.37;16.73;100609.78;5101904;27;20079;-57
2021/12/27 06:31:08;;;;;;;3.50;2.72;;;;;;;21.37;16.53;100603.50;5095933;27;20057;-57
2021/12/27 06:33:34;;;;;;;3.40;2.90;;;;;;;21.38;16.84;100607.78;5096989;27;20059;-58
2021/12/27 06:36:00;;;;;;;3.67;3.00;;;;;;;21.36;16.74;100610.19;5090967;28;20414;-56
2021/12/27 06:38:25;;;;;;;3.78;3.05;;;;;;;21.38;16.55;100627.06;5105171;27;20036;-56
2021/12/27 06:40:52;;;;;;;3.42;2.67;;;;;;;21.38;16.90;100627.06;5095245;28;20754;-57
2021/12/27 06:43:18;;;;;;;3.30;2.60;;;;;;;21.38;16.70;100627.06;5093230;28;20035;-57
2021/12/27 06:45:43;;;;;;;3.25;2.65;;;;;;;21.35;16.70;100622.41;5097410;27;20074;-55
2021/12/27 06:48:09;;;;;;;3.70;2.85;;;;;;;21.36;16.86;100616.47;5093662;27;20260;-61
2021/12/27 06:50:35;;;;;;;3.35;2.65;;;;;;;21.37;16.85;100626.28;5093760;28;20089;-57
2021/12/27 06:53:00;;;;;;;3.60;2.80;;;;;;;21.38;16.86;100630.59;5090950;27;20039;-56
2021/12/27 06:55:28;;;;;;;3.60;3.10;;;;;;;21.39;16.72;100634.13;5089563;27;20122;-57
2021/12/27 06:57:54;;;;;;;3.53;2.80;;;;;;;21.38;16.66;100633.34;5088492;27;20050;-57
2021/12/27 07:00:20;;;;;;;3.40;2.75;;;;;;;21.39;16.72;100645.13;5092445;27;20059;-57
2021/12/27 07:02:45;;;;;;;3.40;2.80;;;;;;;21.37;16.87;100629.03;5092881;27;20035;-59
2021/12/27 07:05:11;;;;;;;3.30;2.63;;;;;;;21.36;17.03;100630.22;5093003;27;20345;-56
2021/12/27 07:07:37;;;;;;;3.28;2.53;;;;;;;21.38;16.84;100635.31;5088582;27;20032;-56
2021/12/27 07:10:09;;;;;;;3.30;2.78;;;;;;;21.38;16.85;100643.56;5086459;27;20032;-58
2021/12/27 07:12:35;;;;;;;4.43;2.63;;;;;;;21.35;16.85;100645.19;5081526;27;20621;-58
2021/12/27 07:15:00;;;;;;;3.47;2.70;;;;;;;21.38;17.12;100651.84;5074965;27;20047;-57
2021/12/27 07:17:27;;;;;;;3.60;2.90;;;;;;;21.36;16.92;100644.00;5073930;27;20035;-58
2021/12/27 07:19:53;;;;;;;3.85;2.90;;;;;;;21.38;16.86;100649.09;5075240;27;20035;-59
2021/12/27 07:22:19;;;;;;;3.90;2.83;;;;;;;21.37;17.08;100656.56;5079042;27;20633;-57
2021/12/27 07:24:44;;;;;;;3.60;2.60;;;;;;;21.36;17.15;100662.47;5074417;27;20944;-58
2021/12/27 07:27:10;;;;;;;3.38;3.05;;;;;;;21.38;17.25;100671.09;5080399;28;20447;-59
2021/12/27 07:29:36;;;;;;;3.92;2.90;;;;;;;21.38;17.22;100665.59;5073492;27;20032;-58
2021/12/27 07:32:01;;;;;;;3.13;2.60;;;;;;;21.36;17.12;100662.47;5074801;27;20044;-57
2021/12/27 07:34:27;;;;;;;3.92;3.10;;;;;;;21.36;17.30;100665.22;5078978;27;20057;-58
2021/12/27 07:36:53;;;;;;;3.63;2.80;;;;;;;21.38;17.28;100671.88;5078934;27;20069;-58
2021/12/27 07:39:19;;;;;;;3.53;2.95;;;;;;;21.39;17.34;100673.44;5082577;28;20622;-57
2021/12/27 07:41:45;;;;;;;3.40;2.70;;;;;;;21.37;17.66;100669.53;5078030;27;20054;-58
2021/12/27 07:44:10;;;;;;;4.13;3.20;;;;;;;21.36;17.79;100676.25;5059240;28;20036;-58
2021/12/27 07:46:44;;;;;;;3.53;2.90;;;;;;;21.41;17.48;100680.50;5070340;27;20062;-57
2021/12/27 07:49:11;;;;;;;3.70;3.15;;;;;;;21.39;18.08;100678.16;5081702;27;20112;-57
2021/12/27 07:51:37;;;;;;;3.85;2.95;;;;;;;21.42;17.48;100687.59;5079569;27;20040;-58
2021/12/27 07:54:03;;;;;;;3.88;2.85;;;;;;;21.41;18.23;100689.53;5082758;27;20888;-59
2021/12/27 07:56:28;;;;;;;4.20;3.35;;;;;;;21.42;18.31;100702.13;5076041;28;20039;-56
2021/12/27 07:59:03;;;;;;;3.92;3.03;;;;;;;21.41;18.19;100697.78;5075618;27;20039;-56
2021/12/27 08:01:32;;;;;;;3.47;2.60;;;;;;;21.42;18.16;100707.63;5073097;27;21008;-57
2021/12/27 08:03:58;;;;;;;3.72;3.10;;;;;;;21.45;18.32;100717.81;5060051;27;20063;-58
2021/12/27 08:06:24;;;;;;;4.75;2.80;;;;;;;21.46;19.14;100713.88;5079182;27;20771;-60
2021/12/27 08:08:49;;;;;;;3.72;2.80;;;;;;;21.48;19.25;100722.50;5051862;28;20067;-62
2021/12/27 08:11:15;;;;;;;3.35;2.67;;;;;;;21.51;19.41;100732.69;5025055;28;20044;-59
2021/12/27 08:13:42;;;;;;;3.78;2.70;;;;;;;21.59;19.68;100730.63;5032579;28;20037;-62
2021/12/27 08:16:10;;;;;;;3.65;2.92;;;;;;;21.60;20.30;100735.72;5019733;28;20044;-61
2021/12/27 08:18:35;;;;;;;3.17;2.83;;;;;;;21.66;19.65;100736.81;5025578;28;20043;-62
2021/12/27 08:21:01;;;;;;;4.60;3.00;;;;;;;21.67;19.84;100727.38;5030489;28;20037;-64
2021/12/27 08:23:27;;;;;;;4.07;2.67;;;;;;;21.76;20.10;100731.59;5028286;28;20591;-62
2021/12/27 08:25:52;;;;;;;3.38;2.80;;;;;;;21.75;19.96;100736.31;5020811;28;20051;-66
2021/12/27 08:28:18;;;;;;;3.90;2.88;;;;;;;21.83;21.31;100748.03;5026558;28;20611;-65
2021/12/27 08:30:44;;;;;;;3.40;2.80;;;;;;;21.88;20.06;100755.81;5027553;28;20052;-62
2021/12/27 08:33:09;;;;;;;3.60;2.78;;;;;;;21.93;20.68;100749.88;5026532;28;20040;-62
2021/12/27 08:35:36;;;;;;;3.88;2.55;;;;;;;21.96;20.54;100751.78;5032068;28;20045;-65
2021/12/27 08:38:03;;;;;;;4.63;3.08;;;;;;;22.00;20.99;100749.78;5030810;28;20544;-64
2021/12/27 08:40:28;;;;;;;3.55;3.05;;;;;;;22.02;20.98;100749.34;5026974;28;20051;-63
2021/12/27 08:42:54;;;;;;;3.95;2.70;;;;;;;22.09;21.90;100754.81;5042655;28;20483;-63
2021/12/27 08:45:20;;;;;;;4.53;3.03;;;;;;;22.13;21.04;100759.06;5025300;28;20174;-59
2021/12/27 08:47:45;;;;;;;3.80;2.65;;;;;;;22.10;20.63;100740.59;5023335;28;20043;-64
2021/12/27 08:50:12;;;;;;;3.75;2.92;;;;;;;22.17;20.35;100753.50;5023623;28;20060;-59
2021/12/27 08:52:38;;;;;;;3.90;2.83;;;;;;;22.17;20.48;100748.78;5027412;28;20037;-57
2021/12/27 08:55:05;;;;;;;4.38;2.90;;;;;;;22.15;20.55;100742.88;5031437;28;20037;-56
2021/12/27 08:57:33;;;;;;;4.05;3.55;;;;;;;22.15;20.86;100745.63;5032680;28;20051;-54
2021/12/27 08:59:59;;;;;;;3.58;2.70;;;;;;;22.20;20.45;100744.41;5031011;28;20040;-59
2021/12/27 09:02:25;;;;;;;4.72;3.30;;;;;;;22.25;20.83;100752.19;5030757;28;20045;-61
2021/12/27 09:04:50;;;;;;;4.05;2.97;;;;;;;22.31;20.47;100753.28;5018068;28;21655;-60
2021/12/27 09:07:18;;;;;;;4.43;3.13;;;;;;;22.34;20.26;100760.72;5025037;28;20716;-59
2021/12/27 09:09:44;;;;;;;3.95;3.17;;;;;;;22.35;21.26;100753.22;5025662;28;20045;-59
2021/12/27 09:12:11;;;;;;;4.15;3.28;;;;;;;22.38;20.44;100763.44;5016571;28;20040;-59
2021/12/27 09:14:36;;;;;;;3.50;3.08;;;;;;;22.38;21.17;100760.69;5020313;28;20136;-56
2021/12/27 09:17:02;;;;;;;3.92;2.95;;;;;;;22.42;20.75;100778.72;5023283;28;20545;-60
2021/12/27 09:19:29;;;;;;;3.65;2.80;;;;;;;22.45;20.69;100780.63;5023703;28;20554;-60
2021/12/27 09:21:54;;;;;;;3.85;2.95;;;;;;;22.46;21.36;100782.22;5038839;28;20043;-61
2021/12/27 09:24:20;;;;;;;3.45;2.85;;;;;;;22.48;21.16;100774.31;5023850;28;20041;-60
2021/12/27 09:26:45;;;;;;;4.82;3.05;;;;;;;22.48;21.00;100785.34;5013719;28;20040;-61
2021/12/27 09:29:11;;;;;;;4.00;2.90;;;;;;;22.48;20.61;100784.56;5025795;28;20096;-61
2021/12/27 09:31:37;;;;;;;4.70;3.15;;;;;;;22.48;21.06;100779.81;5018481;28;21942;-56
2021/12/27 09:34:06;;;;;;;3.58;3.00;;;;;;;22.51;21.01;100781.72;5015816;28;20163;-60
2021/12/27 09:36:32;;;;;;;3.35;2.97;;;;;;;22.48;20.87;100784.56;5018190;28;20044;-59
2021/12/27 09:38:58;;;;;;;3.67;2.97;;;;;;;22.53;21.00;100793.13;5030471;28;20784;-64
2021/12/27 09:41:24;;;;;;;3.30;2.85;;;;;;;22.54;20.90;100799.41;5037514;28;20047;-61
2021/12/27 09:43:50;;;;;;;4.50;3.15;;;;;;;22.58;21.60;100796.63;5030832;28;20028;-59
2021/12/27 09:46:17;;;;;;;4.72;3.10;;;;;;;22.59;22.16;100801.72;5032710;28;37331;-58
2021/12/27 09:48:44;;;;;;;3.83;2.97;;;;;;;22.62;21.25;100802.84;5035199;28;20028;-59
2021/12/27 09:51:10;;;;;;;3.72;3.03;;;;;;;22.62;20.65;100811.91;5040585;28;20032;-58
2021/12/27 09:53:38;;;;;;;5.20;3.55;;;;;;;22.60;22.23;100821.78;5015583;28;20527;-60
2021/12/27 09:56:07;;;;;;;3.65;3.00;;;;;;;22.63;20.83;100824.50;5018955;28;20845;-57
2021/12/27 09:58:33;;;;;;;5.60;3.20;;;;;;;22.65;21.11;100827.63;5029179;28;20036;-59
2021/12/27 10:01:03;;;;;;;3.45;2.92;;;;;;;22.66;20.75;100820.91;5024639;28;20037;-57
2021/12/27 10:03:30;;;;;;;4.25;3.22;;;;;;;22.70;20.80;100834.66;5028658;28;20396;-56
2021/12/27 10:06:09;;;;;;;4.43;3.30;;;;;;;22.68;21.12;100834.28;5014186;28;20028;-63
2021/12/27 10:08:36;;;;;;;4.80;3.08;;;;;;;22.70;21.06;100838.19;5019850;28;20041;-57
2021/12/27 10:11:02;;;;;;;3.83;2.90;;;;;;;22.68;21.00;100843.34;5019096;28;21362;-60
2021/12/27 10:13:28;;;;;;;3.53;2.90;;;;;;;22.71;20.77;100850.78;5040492;28;20811;-61
2021/12/27 10:15:54;;;;;;;3.72;2.90;;;;;;;22.72;21.34;100849.56;5021178;28;20036;-58
2021/12/27 10:18:24;;;;;;;4.18;2.97;;;;;;;22.73;21.17;100853.88;5025514;28;20036;-56
2021/12/27 10:20:50;;;;;;;3.78;2.88;;;;;;;22.73;20.80;100858.63;4997489;28;20035;-59
2021/12/27 10:23:19;;;;;;;3.42;3.00;;;;;;;22.68;20.92;100862.66;5023703;28;20036;-53
2021/12/27 10:25:48;;;;;;;3.65;2.95;;;;;;;22.80;21.14;100870.34;5023539;28;20552;-58
2021/12/27 10:28:15;;;;;;;4.65;3.10;;;;;;;22.86;21.09;100867.94;5020937;28;20933;-52
2021/12/27 10:30:44;;;;;;;3.85;3.17;;;;;;;22.88;21.34;100871.03;5020654;28;20040;-53
2021/12/27 10:33:21;;;;;;;5.05;3.20;;;;;;;22.91;20.91;100872.97;5025553;28;20044;-52
2021/12/27 10:35:54;;;;;;;3.65;2.90;;;;;;;22.92;20.80;100871.75;5013153;28;20032;-55
2021/12/27 10:38:23;;;;;;;5.05;3.20;;;;;;;22.94;20.91;100874.13;5020969;28;20048;-53
2021/12/27 10:40:53;;;;;;;3.72;2.85;;;;;;;22.99;20.79;100871.66;5017532;28;20165;-52
2021/12/27 10:43:31;;;;;;;4.05;2.95;;;;;;;23.00;20.84;100877.94;5033217;28;20041;-56
2021/12/27 10:46:00;;;;;;;4.35;3.10;;;;;;;22.97;20.97;100873.28;5035965;28;20040;-57
2021/12/27 10:48:30;;;;;;;4.20;3.30;;;;;;;22.95;21.19;100872.94;5022551;28;20040;-55
2021/12/27 10:50:57;;;;;;;4.07;3.00;;;;;;;22.98;20.94;100880.34;5008266;28;20109;-61
2021/12/27 10:53:23;;;;;;;4.38;2.67;;;;;;;23.00;21.48;100889.00;5024835;28;20047;-58
2021/12/27 10:55:49;;;;;;;4.10;3.20;;;;;;;23.01;20.92;100885.03;5018977;28;20033;-63
2021/12/27 10:58:22;;;;;;;4.32;3.05;;;;;;;22.98;21.04;100900.44;5024107;28;20033;-63
2021/12/27 11:00:59;;;;;;;5.65;3.05;;;;;;;23.02;21.18;100887.38;5017890;28;20695;-57
2021/12/27 11:03:29;;;;;;;5.10;2.85;;;;;;;22.98;21.11;100875.63;5031578;28;20124;-56
2021/12/27 11:05:55;;;;;;;4.88;2.95;;;;;;;23.02;21.20;100887.38;5029187;28;20039;-57
2021/12/27 11:08:21;;;;;;;3.95;3.10;;;;;;;23.03;20.92;100888.16;5025102;28;21473;-59
2021/12/27 11:10:47;;;;;;;5.07;2.95;;;;;;;23.02;20.85;100892.88;5016965;28;20036;-56
2021/12/27 11:13:13;;;;;;;3.72;3.05;;;;;;;22.99;20.52;100885.44;5024888;28;20032;-57
2021/12/27 11:15:40;;;;;;;3.38;2.67;;;;;;;23.00;20.67;100887.00;5018371;28;20047;-53
2021/12/27 11:18:06;;;;;;;5.05;3.30;;;;;;;23.01;20.64;100885.81;5007315;28;21522;-59
2021/12/27 11:20:32;;;;;;;3.95;3.00;;;;;;;23.03;22.28;100888.16;5010433;28;20044;-52
2021/12/27 11:22:58;;;;;;;3.40;2.80;;;;;;;23.05;20.75;100889.31;5011539;28;20380;-60
2021/12/27 11:25:38;;;;;;;4.03;2.97;;;;;;;23.08;20.74;100893.19;5021481;28;20036;-57